BCD weather

Bacolod-Silay Airport
Bacolod City, Negroe Occidental Province, Philippines

Public forecast

Using degrees Celsius for public forecast. Weather courtesy of forecast.io.

METAR (pilot weather report)

Closest report is Mactan Cebu International Airport, 63.5 nm (117.6 km) ESE. Retrieved 2019/03/20 13:00 UTC (30 minutes ago):

RPVM 201300Z 07009KT 9999 FEW020 SCT300 28/22 Q1013 RMK A2991

TAF (pilot weather forecast)

Closest forecast is Mactan Cebu International Airport, 63.5 nm (117.6 km) ESE. Retrieved 2019/03/20 12:00 UTC (1 hour ago):

TAF RPVM 201100Z 2012/2118 06008KT 9999 FEW020 TEMPO 2012/2018 05012KT FEW020 SCT300 TEMPO 2018/2024 04010KT